Time;durP1;ratioP1;P1;durP2;ratioP2;P2;SDS_P1;SDS_P2;PMS_P1;PMS_P2;Temp;Humidity;BMP_temperature;BMP_pressure;BME280_temperature;BME280_humidity;BME280_pressure;Samples;Min_cycle;Max_cycle;Signal;HPM_P1;HPM_P2
2021/12/16 00:01:57;;;;;;;30.00;15.10;;;6.10;99.90;;;;;;4982143;28;20407;-68
2021/12/16 00:32:04;;;;;;;35.85;17.00;;;6.60;99.90;;;;;;4971669;28;20134;-68
2021/12/16 00:34:31;;;;;;;34.22;16.73;;;6.60;99.90;;;;;;4968554;28;20130;-68
2021/12/16 00:36:58;;;;;;;33.20;18.45;;;6.60;99.90;;;;;;4968606;28;20045;-68
2021/12/16 00:39:31;;;;;;;37.85;19.15;;;6.60;99.90;;;;;;4965734;28;20038;-68
2021/12/16 00:42:06;;;;;;;50.97;20.70;;;6.60;99.90;;;;;;4969450;28;20074;-68
2021/12/16 00:49:42;;;;;;;39.40;18.92;;;6.60;99.90;;;;;;5020229;28;20060;-68
2021/12/16 00:55:27;;;;;;;49.63;20.92;;;6.50;99.90;;;;;;5024059;28;20053;-68
2021/12/16 00:57:45;;;;;;;48.65;22.58;;;6.50;99.90;;;;;;4989666;28;20109;-68
2021/12/16 01:00:15;;;;;;;53.60;23.50;;;6.50;99.90;;;;;;4990853;28;20057;-68
2021/12/16 01:08:31;;;;;;;49.92;23.98;;;6.50;99.90;;;;;;5023884;28;20069;-68
2021/12/16 01:42:15;;;;;;;44.80;24.65;;;7.00;99.90;;;;;;4968548;28;20177;-68
2021/12/16 01:47:18;;;;;;;46.13;23.75;;;7.00;99.90;;;;;;4970603;28;20081;-68
2021/12/16 01:49:50;;;;;;;39.65;22.45;;;7.00;99.90;;;;;;4955116;28;20082;-68
2021/12/16 01:55:17;;;;;;;49.05;23.65;;;7.10;99.90;;;;;;4970742;28;20401;-68
2021/12/16 01:57:50;;;;;;;44.58;23.33;;;7.10;99.90;;;;;;4970589;28;20043;-68
2021/12/16 02:00:29;;;;;;;37.28;22.50;;;7.10;99.90;;;;;;4954560;28;20453;-68
2021/12/16 02:03:05;;;;;;;46.50;23.30;;;7.10;99.90;;;;;;4970722;28;20043;-68
2021/12/16 02:08:19;;;;;;;46.05;25.40;;;7.10;99.90;;;;;;4970641;28;20058;-68
2021/12/16 02:10:56;;;;;;;43.03;22.25;;;7.10;99.90;;;;;;4968082;28;20061;-68
2021/12/16 02:37:36;;;;;;;38.40;21.05;;;7.40;99.90;;;;;;4969698;28;20059;-68
2021/12/16 02:40:07;;;;;;;36.65;19.83;;;7.50;99.90;;;;;;4952209;28;20039;-68
2021/12/16 02:42:39;;;;;;;36.55;19.45;;;7.50;99.90;;;;;;5002556;28;20077;-68
2021/12/16 02:50:24;;;;;;;34.97;20.17;;;7.50;99.90;;;;;;5002364;28;20050;-68
2021/12/16 02:52:50;;;;;;;40.17;20.33;;;7.50;99.90;;;;;;4969627;28;20043;-68
2021/12/16 02:55:19;;;;;;;43.17;20.50;;;7.50;99.90;;;;;;4985847;28;20104;-68
2021/12/16 02:57:53;;;;;;;38.42;20.30;;;7.50;99.90;;;;;;5001865;28;20129;-68
2021/12/16 03:00:19;;;;;;;30.23;18.67;;;7.50;99.90;;;;;;5002285;28;20047;-68
2021/12/16 03:02:51;;;;;;;36.65;20.30;;;7.60;99.90;;;;;;4953411;28;20077;-68
2021/12/16 03:05:19;;;;;;;37.45;18.98;;;7.60;99.90;;;;;;4969765;28;20039;-68
2021/12/16 03:07:46;;;;;;;38.30;19.95;;;7.60;99.90;;;;;;5001982;28;20264;-68
2021/12/16 03:38:21;;;;;;;40.47;18.42;;;7.80;99.90;;;;;;4997026;28;20130;-68
2021/12/16 03:40:47;;;;;;;35.25;18.05;;;7.80;99.90;;;;;;5002640;28;20134;-68
2021/12/16 03:43:17;;;;;;;34.05;18.67;;;7.80;99.90;;;;;;5004596;28;20042;-68
2021/12/16 03:48:50;;;;;;;34.35;18.80;;;7.80;99.90;;;;;;5004899;28;20073;-68
2021/12/16 03:51:21;;;;;;;38.67;19.17;;;7.80;99.90;;;;;;5004611;28;20042;-68
2021/12/16 03:53:50;;;;;;;31.15;19.02;;;7.70;99.90;;;;;;5004717;28;20053;-68
2021/12/16 03:56:17;;;;;;;33.45;18.55;;;7.70;99.90;;;;;;5004513;28;20521;-67
2021/12/16 03:58:43;;;;;;;38.70;19.40;;;7.60;99.90;;;;;;4972070;28;20038;-68
2021/12/16 04:01:15;;;;;;;37.20;18.90;;;7.60;99.90;;;;;;4972284;28;20390;-68
2021/12/16 04:03:42;;;;;;;41.33;20.27;;;7.50;99.90;;;;;;4971986;28;20096;-68
2021/12/16 04:06:10;;;;;;;204.85;38.10;;;7.50;99.90;;;;;;5004733;28;20043;-68
2021/12/16 04:08:37;;;;;;;62.55;24.30;;;7.40;99.90;;;;;;4956037;28;20069;-68
2021/12/16 04:11:18;;;;;;;40.38;21.08;;;7.30;99.90;;;;;;5002365;28;20082;-68
2021/12/16 04:13:59;;;;;;;39.05;20.80;;;7.30;99.90;;;;;;5004235;28;20053;-68
2021/12/16 04:16:39;;;;;;;44.15;20.85;;;7.30;99.90;;;;;;4989936;28;20059;-68
2021/12/16 04:19:11;;;;;;;39.85;21.73;;;7.20;99.90;;;;;;4949323;28;20499;-68
2021/12/16 04:21:41;;;;;;;44.83;20.38;;;7.20;99.90;;;;;;4949296;29;20123;-68
2021/12/16 04:24:08;;;;;;;42.03;19.75;;;7.20;99.90;;;;;;4949274;29;20043;-68
2021/12/16 04:26:34;;;;;;;44.10;20.48;;;7.10;99.90;;;;;;4933548;28;20046;-67
2021/12/16 04:29:03;;;;;;;176.70;37.25;;;7.10;99.90;;;;;;4952533;29;20127;-68
2021/12/16 04:31:29;;;;;;;54.03;24.30;;;7.10;99.90;;;;;;4952880;28;20393;-67
2021/12/16 04:33:55;;;;;;;44.22;21.63;;;7.10;99.90;;;;;;4952677;29;20047;-68
2021/12/16 04:36:21;;;;;;;53.08;24.45;;;7.10;99.90;;;;;;4952644;28;20130;-68
2021/12/16 04:38:48;;;;;;;53.05;25.08;;;7.10;99.90;;;;;;4944974;28;20046;-68
2021/12/16 04:41:16;;;;;;;67.35;27.73;;;7.10;99.90;;;;;;5002210;28;20091;-68
2021/12/16 04:43:51;;;;;;;45.30;22.70;;;7.10;99.90;;;;;;4955694;28;20089;-68
2021/12/16 04:46:24;;;;;;;78.78;28.33;;;7.10;99.90;;;;;;4987854;28;20051;-68
2021/12/16 04:48:52;;;;;;;74.55;26.17;;;7.10;99.90;;;;;;4971644;28;20042;-68
2021/12/16 04:51:19;;;;;;;62.13;24.33;;;7.10;99.90;;;;;;4971799;28;20038;-68
2021/12/16 04:53:45;;;;;;;54.28;22.98;;;7.00;99.90;;;;;;4971450;28;20277;-68
2021/12/16 04:56:12;;;;;;;45.97;23.13;;;7.00;99.90;;;;;;4987828;28;20135;-68
2021/12/16 04:58:41;;;;;;;53.05;24.38;;;7.00;99.90;;;;;;4971428;28;20074;-68
2021/12/16 05:01:07;;;;;;;52.58;23.27;;;7.00;99.90;;;;;;5004231;28;20041;-68
2021/12/16 05:03:34;;;;;;;53.15;23.65;;;7.00;99.90;;;;;;5003688;28;20039;-68
2021/12/16 05:06:00;;;;;;;62.10;26.17;;;7.10;99.90;;;;;;4987612;28;20125;-68
2021/12/16 05:08:26;;;;;;;61.72;25.63;;;7.10;99.90;;;;;;5003724;28;20135;-68
2021/12/16 05:10:55;;;;;;;50.78;23.63;;;7.10;99.90;;;;;;5001674;28;20065;-68
2021/12/16 05:13:25;;;;;;;51.65;20.83;;;7.10;99.90;;;;;;4955107;28;20054;-68
2021/12/16 05:15:52;;;;;;;74.88;28.50;;;7.10;99.90;;;;;;5003937;28;20063;-68
2021/12/16 05:18:23;;;;;;;77.18;27.40;;;7.10;99.90;;;;;;5003433;28;20134;-68
2021/12/16 05:20:49;;;;;;;76.40;25.50;;;7.10;99.90;;;;;;5003951;28;20466;-68
2021/12/16 05:28:36;;;;;;;54.90;24.30;;;7.00;99.90;;;;;;5003326;28;20104;-68
2021/12/16 05:31:03;;;;;;;81.32;29.30;;;6.90;99.90;;;;;;4987151;28;20046;-68
2021/12/16 05:33:29;;;;;;;92.30;30.52;;;6.90;99.90;;;;;;4954773;28;20086;-68
2021/12/16 05:35:56;;;;;;;81.13;28.60;;;6.90;99.90;;;;;;4970871;28;20089;-68
2021/12/16 05:38:24;;;;;;;65.18;24.25;;;6.80;99.90;;;;;;5000511;28;20047;-68
2021/12/16 05:40:50;;;;;;;83.93;27.42;;;6.80;99.90;;;;;;4968503;28;20078;-68
2021/12/16 05:43:18;;;;;;;53.95;24.45;;;6.70;99.90;;;;;;4954579;28;20039;-68
2021/12/16 05:45:45;;;;;;;66.53;26.23;;;6.70;99.90;;;;;;4970817;28;20045;-68
2021/12/16 05:48:14;;;;;;;51.47;23.77;;;6.70;99.90;;;;;;4970931;28;20058;-68
2021/12/16 05:50:43;;;;;;;52.53;23.05;;;6.60;99.90;;;;;;4970881;28;20399;-67
2021/12/16 05:53:09;;;;;;;58.85;25.52;;;6.60;99.90;;;;;;4954601;28;20487;-68
2021/12/16 05:55:35;;;;;;;58.00;26.52;;;6.50;99.90;;;;;;4970763;28;20158;-68
2021/12/16 05:58:04;;;;;;;69.32;28.95;;;6.50;99.90;;;;;;4970621;28;20467;-68
2021/12/16 06:00:36;;;;;;;80.18;30.42;;;6.60;99.90;;;;;;4970783;28;20038;-68
2021/12/16 06:03:02;;;;;;;79.25;31.95;;;6.50;99.90;;;;;;4970390;28;20184;-67
2021/12/16 06:05:28;;;;;;;76.03;28.73;;;6.50;99.90;;;;;;4970854;28;20043;-67
2021/12/16 06:07:54;;;;;;;82.55;29.83;;;6.50;99.90;;;;;;4954535;28;20057;-68
2021/12/16 06:13:05;;;;;;;125.10;35.63;;;6.50;99.90;;;;;;4970504;28;20057;-67
2021/12/16 06:28:51;;;;;;;55.55;23.60;;;6.00;99.90;;;;;;4970469;28;20119;-68
2021/12/16 06:31:16;;;;;;;107.65;24.30;;;6.00;99.90;;;;;;4970008;28;20510;-67
2021/12/16 06:33:44;;;;;;;94.05;31.42;;;5.90;99.90;;;;;;4969962;28;20047;-67
2021/12/16 06:36:09;;;;;;;247.23;44.08;;;5.90;99.90;;;;;;4954104;28;20046;-67
2021/12/16 06:38:35;;;;;;;374.33;59.15;;;5.90;99.90;;;;;;4969659;28;20050;-68
2021/12/16 06:41:02;;;;;;;622.75;63.13;;;5.90;99.90;;;;;;4967465;28;20051;-68
2021/12/16 06:43:28;;;;;;;595.53;60.75;;;5.90;99.90;;;;;;4953820;28;20053;-68
2021/12/16 06:45:55;;;;;;;574.53;59.35;;;5.90;99.90;;;;;;4970056;28;20046;-67
2021/12/16 06:48:26;;;;;;;424.55;41.17;;;5.80;99.90;;;;;;4969752;28;20129;-67
2021/12/16 06:51:00;;;;;;;440.95;43.78;;;5.70;99.90;;;;;;4953999;28;20125;-68
2021/12/16 06:53:32;;;;;;;392.50;40.72;;;5.60;99.90;;;;;;4969894;28;20047;-68
2021/12/16 06:56:05;;;;;;;531.83;55.58;;;5.50;99.90;;;;;;4969769;28;20046;-67
2021/12/16 06:58:37;;;;;;;682.15;67.97;;;5.40;99.90;;;;;;4969509;28;20129;-67
2021/12/16 07:01:20;;;;;;;627.10;69.80;;;5.40;99.90;;;;;;4953614;28;20039;-67
2021/12/16 07:03:49;;;;;;;518.72;62.15;;;5.30;99.90;;;;;;4969677;28;20042;-67
2021/12/16 07:06:25;;;;;;;806.55;88.78;;;5.40;99.90;;;;;;4985788;28;20074;-68
2021/12/16 07:08:55;;;;;;;760.22;91.28;;;5.30;99.90;;;;;;4953375;28;20262;-67
2021/12/16 07:11:22;;;;;;;764.10;94.40;;;5.30;99.90;;;;;;4999926;28;20038;-68
2021/12/16 07:13:57;;;;;;;854.20;101.38;;;5.30;99.90;;;;;;4969800;28;20072;-68
2021/12/16 07:16:25;;;;;;;859.33;100.15;;;5.40;99.90;;;;;;4969285;28;20055;-67
2021/12/16 07:18:51;;;;;;;833.95;88.65;;;5.40;99.90;;;;;;4953280;28;20109;-67
2021/12/16 07:21:17;;;;;;;697.55;79.50;;;5.40;99.90;;;;;;5002091;28;20039;-68
2021/12/16 07:23:44;;;;;;;799.85;90.32;;;5.40;99.90;;;;;;4969316;28;20042;-68
2021/12/16 07:26:10;;;;;;;745.60;82.55;;;5.40;99.90;;;;;;4953522;28;20406;-68
2021/12/16 07:28:35;;;;;;;658.28;79.00;;;5.40;99.90;;;;;;4969523;28;20050;-68
2021/12/16 07:31:01;;;;;;;591.80;67.18;;;5.40;99.90;;;;;;4969435;28;20403;-68
2021/12/16 07:33:27;;;;;;;497.25;61.88;;;5.40;99.90;;;;;;4953339;28;20047;-68
2021/12/16 07:35:54;;;;;;;503.75;62.97;;;5.40;99.90;;;;;;4953277;28;20073;-68
2021/12/16 07:38:21;;;;;;;435.67;63.67;;;5.40;99.90;;;;;;4996519;28;20047;-68
2021/12/16 07:40:49;;;;;;;533.88;70.93;;;5.40;99.90;;;;;;4947549;28;20054;-68
2021/12/16 07:43:39;;;;;;;526.15;74.43;;;5.50;99.90;;;;;;4949971;29;20082;-68
2021/12/16 07:46:06;;;;;;;617.95;83.70;;;5.50;99.90;;;;;;4949781;29;20045;-68
2021/12/16 07:48:32;;;;;;;624.35;88.13;;;5.60;99.90;;;;;;4950351;28;20051;-68
2021/12/16 07:51:00;;;;;;;645.15;88.68;;;5.60;99.90;;;;;;4949729;28;20496;-68
2021/12/16 07:53:26;;;;;;;203.63;45.17;;;5.60;99.90;;;;;;4949947;28;20051;-69
2021/12/16 07:55:52;;;;;;;193.20;45.78;;;5.60;99.90;;;;;;4949745;29;20125;-68
2021/12/16 07:58:19;;;;;;;156.80;40.47;;;5.60;99.90;;;;;;4933792;29;20112;-68
2021/12/16 08:00:46;;;;;;;616.67;90.03;;;5.60;99.90;;;;;;4982061;28;20047;-68
2021/12/16 08:03:13;;;;;;;340.55;60.42;;;5.60;99.90;;;;;;4936020;29;20510;-68
2021/12/16 08:05:44;;;;;;;672.63;90.00;;;5.60;99.90;;;;;;4953031;28;20043;-69
2021/12/16 08:08:10;;;;;;;757.55;94.00;;;5.60;99.90;;;;;;4937352;28;20420;-68
2021/12/16 08:10:36;;;;;;;637.25;89.78;;;5.60;99.90;;;;;;4950774;29;20043;-68
2021/12/16 08:13:03;;;;;;;409.13;63.17;;;5.50;99.90;;;;;;4952961;28;20043;-68
2021/12/16 08:15:29;;;;;;;594.28;85.70;;;5.50;99.90;;;;;;4956062;28;20314;-68
2021/12/16 08:17:56;;;;;;;594.33;78.20;;;5.50;99.90;;;;;;4988236;28;20192;-68
2021/12/16 08:20:22;;;;;;;493.70;68.40;;;5.50;99.90;;;;;;4988627;28;20465;-68
2021/12/16 08:22:51;;;;;;;373.13;58.88;;;5.50;99.90;;;;;;5004732;28;20172;-68
2021/12/16 08:25:20;;;;;;;334.20;59.97;;;5.60;99.90;;;;;;5004747;28;20062;-68
2021/12/16 08:27:47;;;;;;;273.20;51.88;;;5.70;99.90;;;;;;5006362;28;20050;-67
2021/12/16 08:30:16;;;;;;;307.63;59.33;;;5.80;99.90;;;;;;4990856;28;20057;-68
2021/12/16 08:32:43;;;;;;;245.73;51.97;;;5.80;99.90;;;;;;4991178;28;20527;-68
2021/12/16 08:35:11;;;;;;;315.17;57.40;;;5.90;99.90;;;;;;4991030;28;20038;-68
2021/12/16 08:37:37;;;;;;;237.73;51.80;;;6.00;99.90;;;;;;4974762;28;20049;-68
2021/12/16 08:40:10;;;;;;;142.27;41.67;;;6.10;99.90;;;;;;4990745;28;20042;-68
2021/12/16 08:42:36;;;;;;;233.68;51.05;;;6.20;99.90;;;;;;5006606;28;20078;-68
2021/12/16 08:45:05;;;;;;;128.73;39.90;;;6.30;99.90;;;;;;4991036;28;20081;-68
2021/12/16 08:47:31;;;;;;;322.30;57.20;;;6.30;99.90;;;;;;4990996;28;20082;-68
2021/12/16 08:49:57;;;;;;;208.95;46.58;;;6.30;99.90;;;;;;4990943;28;20074;-68
2021/12/16 08:52:23;;;;;;;113.68;36.05;;;6.40;99.90;;;;;;4991060;28;20046;-68
2021/12/16 08:54:50;;;;;;;253.77;50.40;;;6.40;99.90;;;;;;4990951;28;20125;-68
2021/12/16 08:57:17;;;;;;;272.08;48.35;;;6.50;99.90;;;;;;4974766;28;20264;-68
2021/12/16 08:59:43;;;;;;;308.77;57.15;;;6.50;99.90;;;;;;4990741;28;20494;-68
2021/12/16 09:02:10;;;;;;;193.32;39.92;;;6.60;99.90;;;;;;4974731;28;20043;-68
2021/12/16 09:04:39;;;;;;;128.65;37.63;;;6.60;99.90;;;;;;4974961;28;20398;-68
2021/12/16 09:07:08;;;;;;;253.90;53.17;;;6.70;99.90;;;;;;4990705;28;20039;-68
2021/12/16 09:09:35;;;;;;;233.02;49.60;;;6.80;99.90;;;;;;4974935;28;20200;-67
2021/12/16 09:12:26;;;;;;;86.43;29.38;;;6.90;99.90;;;;;;4988622;28;20532;-68
2021/12/16 09:14:52;;;;;;;209.98;45.70;;;7.00;99.90;;;;;;4989447;28;20525;-68
2021/12/16 09:17:18;;;;;;;182.10;43.60;;;7.10;99.90;;;;;;4990574;28;20069;-67
2021/12/16 09:19:48;;;;;;;129.35;34.50;;;7.20;99.90;;;;;;4990537;28;20043;-67
2021/12/16 09:22:17;;;;;;;107.80;31.90;;;7.30;99.90;;;;;;4990468;28;20175;-67
2021/12/16 09:24:43;;;;;;;184.27;42.47;;;7.30;99.90;;;;;;4990830;28;20065;-68
2021/12/16 09:27:09;;;;;;;80.57;26.15;;;7.40;99.90;;;;;;4990433;28;20502;-68
2021/12/16 09:29:35;;;;;;;83.40;32.85;;;7.50;99.90;;;;;;4974571;28;20050;-68
2021/12/16 09:32:03;;;;;;;98.47;32.67;;;7.50;99.90;;;;;;4990327;28;20525;-68
2021/12/16 09:34:29;;;;;;;102.97;34.53;;;7.50;99.90;;;;;;4990724;28;20095;-68
2021/12/16 09:36:55;;;;;;;173.65;40.08;;;7.40;99.90;;;;;;4990261;28;20137;-68
2021/12/16 09:39:24;;;;;;;266.67;51.88;;;7.40;99.90;;;;;;4977500;28;20122;-69
2021/12/16 09:41:51;;;;;;;273.58;44.65;;;7.40;99.90;;;;;;5001466;28;20038;-69
2021/12/16 09:44:18;;;;;;;157.95;35.67;;;7.40;99.90;;;;;;4970855;28;20047;-69
2021/12/16 09:46:48;;;;;;;276.00;45.33;;;7.30;99.90;;;;;;4987151;28;20049;-69
2021/12/16 09:49:15;;;;;;;136.65;30.20;;;7.30;99.90;;;;;;5003305;28;20062;-69
2021/12/16 09:51:43;;;;;;;156.00;33.25;;;7.30;99.90;;;;;;4970554;28;20046;-69
2021/12/16 09:54:17;;;;;;;152.60;33.08;;;7.30;99.90;;;;;;4970932;28;20047;-69
2021/12/16 09:56:45;;;;;;;352.27;52.67;;;7.30;99.90;;;;;;4970811;28;20043;-69
2021/12/16 09:59:13;;;;;;;263.80;39.25;;;7.30;99.90;;;;;;4986779;28;20050;-69
2021/12/16 10:01:42;;;;;;;193.15;36.47;;;7.30;99.90;;;;;;5003128;28;20047;-68
2021/12/16 10:04:11;;;;;;;142.98;30.75;;;7.30;99.90;;;;;;5003320;28;20134;-68
2021/12/16 10:06:38;;;;;;;141.05;32.45;;;7.20;99.90;;;;;;4970579;28;20491;-68
2021/12/16 10:09:06;;;;;;;242.02;47.95;;;7.20;99.90;;;;;;4987069;28;20092;-68
2021/12/16 10:11:34;;;;;;;153.30;33.95;;;7.20;99.90;;;;;;4984341;28;20046;-68
2021/12/16 10:15:00;;;;;;;168.15;34.60;;;7.20;99.90;;;;;;4970635;28;20046;-68
2021/12/16 10:19:35;;;;;;;138.13;29.83;;;7.30;99.90;;;;;;5002901;28;20054;-69
2021/12/16 10:22:22;;;;;;;180.98;37.95;;;7.30;99.90;;;;;;5003011;28;20399;-69
2021/12/16 10:24:50;;;;;;;107.93;28.60;;;7.40;99.90;;;;;;4969791;28;20058;-69
2021/12/16 10:27:23;;;;;;;100.38;23.00;;;7.40;99.90;;;;;;5002492;28;20039;-69
2021/12/16 10:29:59;;;;;;;158.95;31.63;;;7.50;99.90;;;;;;5002622;28;20074;-69
2021/12/16 10:32:38;;;;;;;124.13;26.30;;;7.60;99.90;;;;;;4954195;28;20419;-69
2021/12/16 10:35:14;;;;;;;117.32;25.90;;;7.60;99.90;;;;;;4969423;28;20074;-68
2021/12/16 10:37:49;;;;;;;86.60;20.75;;;7.70;99.90;;;;;;4954081;28;20161;-68
2021/12/16 10:40:22;;;;;;;169.45;31.63;;;7.60;99.90;;;;;;4981682;28;20039;-69
2021/12/16 10:42:48;;;;;;;99.22;22.67;;;7.70;99.90;;;;;;4935208;29;20051;-68
2021/12/16 10:45:28;;;;;;;104.38;21.63;;;7.80;99.90;;;;;;4935451;29;20043;-69
2021/12/16 10:48:35;;;;;;;48.20;13.10;;;7.80;99.90;;;;;;4950897;28;20446;-69
2021/12/16 10:51:07;;;;;;;103.25;24.35;;;7.80;99.90;;;;;;4942287;29;20059;-69
2021/12/16 10:54:13;;;;;;;135.35;29.67;;;7.80;99.90;;;;;;4950547;29;20093;-69
2021/12/16 10:56:42;;;;;;;211.55;39.25;;;7.80;99.90;;;;;;4936033;29;20079;-68
2021/12/16 10:59:25;;;;;;;77.68;18.98;;;7.80;99.90;;;;;;4947877;29;20052;-69
2021/12/16 11:01:59;;;;;;;103.30;19.65;;;7.90;99.90;;;;;;4950585;29;20039;-68
2021/12/16 11:04:31;;;;;;;81.72;19.27;;;8.00;99.90;;;;;;4934728;28;20142;-69
2021/12/16 11:07:16;;;;;;;112.30;18.50;;;8.00;99.90;;;;;;4934319;29;20053;-69
2021/12/16 11:10:02;;;;;;;93.72;18.42;;;8.00;99.90;;;;;;4950351;29;20051;-69
2021/12/16 11:12:36;;;;;;;163.20;30.27;;;8.10;99.90;;;;;;4947581;28;20066;-69
2021/12/16 11:15:13;;;;;;;172.27;32.33;;;8.10;99.90;;;;;;4960723;28;20108;-69
2021/12/16 11:17:48;;;;;;;331.77;43.55;;;8.10;99.90;;;;;;4953504;28;20384;-69
2021/12/16 11:20:48;;;;;;;158.32;27.70;;;8.10;99.90;;;;;;4969683;28;20447;-69
2021/12/16 11:23:21;;;;;;;137.60;26.33;;;8.10;99.90;;;;;;4969519;28;20145;-69
2021/12/16 11:25:57;;;;;;;129.65;25.05;;;8.10;99.90;;;;;;4969601;28;20085;-69
2021/12/16 11:28:32;;;;;;;130.52;20.90;;;8.10;99.90;;;;;;4953307;28;20057;-69
2021/12/16 11:31:19;;;;;;;107.30;24.85;;;8.10;99.90;;;;;;4969297;28;20486;-69
2021/12/16 11:33:52;;;;;;;127.75;26.27;;;8.10;99.90;;;;;;4953398;28;20126;-69
2021/12/16 11:36:22;;;;;;;228.05;31.45;;;8.20;99.90;;;;;;4969032;28;20051;-69
2021/12/16 11:38:50;;;;;;;124.10;21.75;;;8.30;99.90;;;;;;4968785;28;20038;-69
2021/12/16 11:41:25;;;;;;;260.20;37.05;;;8.30;99.90;;;;;;4967001;28;20053;-69
2021/12/16 11:44:08;;;;;;;86.55;18.55;;;8.30;99.90;;;;;;5001558;28;20043;-69
2021/12/16 11:46:54;;;;;;;100.35;19.17;;;8.30;99.90;;;;;;4969284;28;20065;-69
2021/12/16 11:49:28;;;;;;;346.13;41.00;;;8.30;99.90;;;;;;5001493;28;20049;-69
2021/12/16 11:52:11;;;;;;;365.20;41.17;;;8.30;99.90;;;;;;5001425;28;20051;-69
2021/12/16 11:54:42;;;;;;;156.43;21.23;;;8.40;99.90;;;;;;4968957;28;20074;-69
2021/12/16 11:57:08;;;;;;;258.35;33.45;;;8.50;99.90;;;;;;4969133;28;20133;-69
2021/12/16 11:59:47;;;;;;;113.93;23.48;;;8.60;99.90;;;;;;4968858;28;20146;-69
2021/12/16 12:02:34;;;;;;;135.13;25.83;;;8.60;99.90;;;;;;4968806;28;20047;-69
2021/12/16 12:05:29;;;;;;;163.52;23.35;;;8.60;99.90;;;;;;4968768;28;20038;-69
2021/12/16 12:08:08;;;;;;;139.40;24.00;;;8.50;99.90;;;;;;4987303;28;20050;-68
2021/12/16 12:10:51;;;;;;;175.70;24.42;;;8.60;99.90;;;;;;4966468;28;20043;-69
2021/12/16 12:13:21;;;;;;;185.60;30.00;;;8.60;99.90;;;;;;4968635;28;20077;-68
2021/12/16 12:16:01;;;;;;;119.85;22.23;;;8.60;99.90;;;;;;4968626;28;20050;-68
2021/12/16 12:18:44;;;;;;;223.23;33.65;;;8.50;99.90;;;;;;4951425;28;20043;-69
2021/12/16 12:21:36;;;;;;;227.00;33.15;;;8.50;99.90;;;;;;4952092;28;20049;-68
2021/12/16 12:24:22;;;;;;;258.52;37.13;;;8.50;99.90;;;;;;4968677;28;20082;-68
2021/12/16 12:26:48;;;;;;;112.45;24.67;;;8.60;99.90;;;;;;4968234;28;20502;-68
2021/12/16 12:29:19;;;;;;;211.50;34.65;;;8.60;99.90;;;;;;4968458;28;20051;-68
2021/12/16 12:31:49;;;;;;;253.50;39.28;;;8.70;99.90;;;;;;4951647;28;20101;-69
2021/12/16 12:34:16;;;;;;;150.75;28.73;;;8.70;99.90;;;;;;4967801;28;20104;-69
2021/12/16 12:36:43;;;;;;;105.85;25.35;;;8.70;99.90;;;;;;4968503;28;20572;-69
2021/12/16 12:39:12;;;;;;;200.85;38.28;;;8.80;99.90;;;;;;4969150;28;20042;-69
2021/12/16 12:41:39;;;;;;;125.70;33.03;;;8.80;99.90;;;;;;4999857;28;20046;-68
2021/12/16 12:44:06;;;;;;;84.97;25.00;;;8.80;99.90;;;;;;4969231;28;20039;-68
2021/12/16 12:46:38;;;;;;;64.35;21.52;;;8.80;99.90;;;;;;4985436;28;20050;-68
2021/12/16 12:49:11;;;;;;;76.45;26.30;;;8.90;99.90;;;;;;4955078;28;20051;-69
2021/12/16 12:51:49;;;;;;;58.05;20.98;;;8.90;99.90;;;;;;4971936;28;20061;-68
2021/12/16 12:54:29;;;;;;;111.20;28.98;;;8.80;99.90;;;;;;4971756;28;20127;-69
2021/12/16 12:57:00;;;;;;;64.47;22.42;;;8.80;99.90;;;;;;4971624;28;20050;-69
2021/12/16 12:59:38;;;;;;;118.00;26.98;;;8.80;99.90;;;;;;4971317;28;20051;-69
2021/12/16 13:02:24;;;;;;;63.33;21.20;;;8.80;99.90;;;;;;4987934;28;20039;-69
2021/12/16 13:05:05;;;;;;;92.30;22.90;;;8.80;99.90;;;;;;4952111;29;20503;-68
2021/12/16 13:07:39;;;;;;;59.45;20.70;;;8.80;99.90;;;;;;4951882;29;20503;-68
2021/12/16 13:10:20;;;;;;;55.25;19.70;;;8.80;99.90;;;;;;4935956;29;20040;-69
2021/12/16 13:13:06;;;;;;;56.90;18.15;;;8.80;99.90;;;;;;4951924;29;20039;-68
2021/12/16 13:27:06;;;;;;;75.50;23.00;;;8.70;99.90;;;;;;4952051;28;20075;-67
2021/12/16 13:32:19;;;;;;;175.48;34.05;;;8.70;99.90;;;;;;4951941;28;20425;-67
2021/12/16 13:35:04;;;;;;;82.88;24.75;;;8.70;99.90;;;;;;4951807;28;20047;-68
2021/12/16 13:37:39;;;;;;;149.63;36.03;;;8.70;99.90;;;;;;4951798;29;20082;-67
2021/12/16 13:40:14;;;;;;;154.00;37.20;;;8.70;99.90;;;;;;4970372;28;20494;-67
2021/12/16 13:42:51;;;;;;;166.38;36.17;;;8.70;99.90;;;;;;4970447;28;20046;-67
2021/12/16 13:45:34;;;;;;;140.45;34.58;;;8.70;99.90;;;;;;4954629;28;20085;-67
2021/12/16 14:10:05;;;;;;;176.30;40.08;;;8.90;99.90;;;;;;4970346;28;20131;-68
2021/12/16 14:23:03;;;;;;;126.22;33.50;;;8.90;99.90;;;;;;5092452;28;20047;-68
2021/12/16 14:23:38;;;;;;;177.20;41.30;;;8.90;99.90;;;;;;4993047;28;20049;-68
2021/12/16 14:37:20;;;;;;;143.90;38.28;;;8.90;99.90;;;;;;5095130;28;20355;-68
2021/12/16 14:42:44;;;;;;;298.67;49.17;;;8.80;99.90;;;;;;4990452;28;20046;-68
2021/12/16 14:47:58;;;;;;;190.52;37.30;;;8.80;99.90;;;;;;4992397;28;20490;-67
2021/12/16 14:50:33;;;;;;;297.52;42.65;;;8.80;99.90;;;;;;4992612;28;20044;-68
2021/12/16 14:52:59;;;;;;;136.52;31.90;;;8.80;99.90;;;;;;5045560;28;20051;-68
2021/12/16 14:55:27;;;;;;;126.78;29.85;;;8.80;99.90;;;;;;5077727;28;20043;-68
2021/12/16 14:57:56;;;;;;;94.90;26.58;;;8.80;99.90;;;;;;5094608;28;20054;-68
2021/12/16 15:00:28;;;;;;;97.38;28.13;;;8.80;99.90;;;;;;5094520;28;20491;-68
2021/12/16 15:03:05;;;;;;;68.30;23.58;;;8.80;99.90;;;;;;5077698;28;20074;-68
2021/12/16 15:05:43;;;;;;;93.50;25.30;;;8.70;99.90;;;;;;5077647;28;20071;-68
2021/12/16 15:08:23;;;;;;;111.57;27.63;;;8.70;99.90;;;;;;5094826;28;20047;-68
2021/12/16 15:10:49;;;;;;;81.00;24.73;;;8.70;99.90;;;;;;5091672;28;20058;-68
2021/12/16 15:13:32;;;;;;;76.35;23.08;;;8.70;99.90;;;;;;5094038;28;20052;-68
2021/12/16 15:38:44;;;;;;;150.02;37.53;;;8.70;99.90;;;;;;5069134;28;20038;-67
2021/12/16 15:44:02;;;;;;;192.40;39.50;;;8.60;99.90;;;;;;4961752;28;20050;-67
2021/12/16 15:46:29;;;;;;;187.00;42.17;;;8.60;99.90;;;;;;4991624;28;20052;-68
2021/12/16 15:48:55;;;;;;;236.00;46.55;;;8.60;99.90;;;;;;4992213;28;20132;-67
2021/12/16 15:51:24;;;;;;;179.40;40.75;;;8.60;99.90;;;;;;4991550;28;20042;-68
2021/12/16 15:53:55;;;;;;;162.40;39.85;;;8.60;99.90;;;;;;4991653;28;20570;-68
2021/12/16 15:56:24;;;;;;;179.15;41.92;;;8.60;99.90;;;;;;4991843;28;20418;-68
2021/12/16 15:59:04;;;;;;;139.18;38.20;;;8.60;99.90;;;;;;4991657;28;20042;-68
2021/12/16 16:01:32;;;;;;;132.82;38.33;;;8.60;99.90;;;;;;4991509;28;20042;-68
2021/12/16 16:04:00;;;;;;;229.38;46.75;;;8.60;99.90;;;;;;4991628;28;20493;-67
2021/12/16 16:06:26;;;;;;;104.22;33.45;;;8.60;99.90;;;;;;4991417;28;20076;-67
2021/12/16 16:08:56;;;;;;;116.75;35.30;;;8.60;99.90;;;;;;4991480;28;20050;-68
2021/12/16 16:11:27;;;;;;;162.93;39.97;;;8.60;99.90;;;;;;4989022;28;20049;-68
2021/12/16 16:14:00;;;;;;;136.88;37.38;;;8.60;99.90;;;;;;4991412;28;20485;-68
2021/12/16 16:16:32;;;;;;;130.18;36.85;;;8.60;99.90;;;;;;4977106;28;20054;-68
2021/12/16 16:19:03;;;;;;;190.32;45.42;;;8.70;99.90;;;;;;4953421;28;20462;-68
2021/12/16 16:21:31;;;;;;;232.02;48.53;;;8.70;99.90;;;;;;4953337;28;20043;-68
2021/12/16 16:24:20;;;;;;;172.18;44.50;;;8.70;99.90;;;;;;4970896;28;20047;-68
2021/12/16 16:26:49;;;;;;;210.40;48.22;;;8.70;99.90;;;;;;4971972;28;20104;-69
2021/12/16 16:29:19;;;;;;;150.15;49.30;;;8.70;99.90;;;;;;4955889;28;20046;-68
2021/12/16 16:31:46;;;;;;;216.35;53.60;;;8.70;99.90;;;;;;4973805;28;20042;-68
2021/12/16 16:34:17;;;;;;;298.98;60.40;;;8.70;99.90;;;;;;4971800;28;20130;-68
2021/12/16 16:36:45;;;;;;;227.88;53.65;;;8.70;99.90;;;;;;4955803;28;20491;-68
2021/12/16 16:39:15;;;;;;;215.50;56.42;;;8.70;99.90;;;;;;4971840;28;20379;-68
2021/12/16 16:41:44;;;;;;;154.07;44.83;;;8.70;99.90;;;;;;4969724;28;20039;-68
2021/12/16 16:44:14;;;;;;;155.43;44.70;;;8.70;99.90;;;;;;4972128;28;20050;-68
2021/12/16 16:47:09;;;;;;;190.57;51.25;;;8.70;99.90;;;;;;4971970;28;20290;-67
2021/12/16 16:49:49;;;;;;;228.07;60.00;;;8.70;99.90;;;;;;4955771;28;20043;-68
2021/12/16 16:52:29;;;;;;;121.78;38.20;;;8.70;99.90;;;;;;5004447;28;20134;-68
2021/12/16 16:55:01;;;;;;;;;;;8.70;99.90;;;;;;5004807;28;20043;-68
2021/12/16 16:57:45;;;;;;;171.32;45.63;;;8.70;99.90;;;;;;5004291;28;19921;-68
2021/12/16 17:00:22;;;;;;;130.50;39.75;;;8.70;99.90;;;;;;5004247;28;20574;-67
2021/12/16 17:03:00;;;;;;;173.95;45.03;;;8.70;99.90;;;;;;4955418;28;20039;-67
2021/12/16 17:05:37;;;;;;;201.15;57.80;;;8.70;99.90;;;;;;4955484;28;20125;-67